sensor_id;sensor_type;location;lat;lon;timestamp;P1;durP1;ratioP1;P2;durP2;ratioP2
18013;SDS011;9132;47.946;10.394;2023-02-24T00:02:16;8.60;;;5.37;;
18013;SDS011;9132;47.946;10.394;2023-02-24T00:04:44;10.33;;;5.60;;
18013;SDS011;9132;47.946;10.394;2023-02-24T00:07:16;8.77;;;5.20;;
18013;SDS011;9132;47.946;10.394;2023-02-24T00:09:44;9.97;;;5.63;;
18013;SDS011;9132;47.946;10.394;2023-02-24T00:12:11;7.50;;;4.80;;
18013;SDS011;9132;47.946;10.394;2023-02-24T00:14:39;7.50;;;5.53;;
18013;SDS011;9132;47.946;10.394;2023-02-24T00:17:06;6.13;;;4.23;;
18013;SDS011;9132;47.946;10.394;2023-02-24T00:19:32;7.63;;;4.77;;
18013;SDS011;9132;47.946;10.394;2023-02-24T00:21:59;11.07;;;4.97;;
18013;SDS011;9132;47.946;10.394;2023-02-24T00:24:26;8.50;;;5.00;;
18013;SDS011;9132;47.946;10.394;2023-02-24T00:26:54;9.30;;;5.00;;
18013;SDS011;9132;47.946;10.394;2023-02-24T00:29:21;9.23;;;4.97;;
18013;SDS011;9132;47.946;10.394;2023-02-24T00:31:48;8.40;;;4.60;;
18013;SDS011;9132;47.946;10.394;2023-02-24T00:34:20;7.13;;;4.20;;
18013;SDS011;9132;47.946;10.394;2023-02-24T00:36:47;7.80;;;5.13;;
18013;SDS011;9132;47.946;10.394;2023-02-24T00:39:13;10.47;;;5.07;;
18013;SDS011;9132;47.946;10.394;2023-02-24T00:41:40;7.23;;;4.00;;
18013;SDS011;9132;47.946;10.394;2023-02-24T00:44:08;7.10;;;4.77;;
18013;SDS011;9132;47.946;10.394;2023-02-24T00:46:35;8.27;;;4.87;;
18013;SDS011;9132;47.946;10.394;2023-02-24T00:49:03;7.90;;;5.20;;
18013;SDS011;9132;47.946;10.394;2023-02-24T00:51:31;7.53;;;4.83;;
18013;SDS011;9132;47.946;10.394;2023-02-24T00:53:59;7.60;;;4.77;;
18013;SDS011;9132;47.946;10.394;2023-02-24T00:56:27;7.00;;;4.20;;
18013;SDS011;9132;47.946;10.394;2023-02-24T00:58:53;7.87;;;4.87;;
18013;SDS011;9132;47.946;10.394;2023-02-24T01:01:22;9.43;;;4.33;;
18013;SDS011;9132;47.946;10.394;2023-02-24T01:03:49;7.10;;;4.60;;
18013;SDS011;9132;47.946;10.394;2023-02-24T01:06:18;7.20;;;4.57;;
18013;SDS011;9132;47.946;10.394;2023-02-24T01:08:45;8.80;;;4.60;;
18013;SDS011;9132;47.946;10.394;2023-02-24T01:11:14;5.43;;;4.10;;
18013;SDS011;9132;47.946;10.394;2023-02-24T01:13:58;12.10;;;4.63;;
18013;SDS011;9132;47.946;10.394;2023-02-24T01:16:26;6.53;;;4.43;;
18013;SDS011;9132;47.946;10.394;2023-02-24T01:18:52;7.60;;;4.37;;
18013;SDS011;9132;47.946;10.394;2023-02-24T01:21:19;8.13;;;4.13;;
18013;SDS011;9132;47.946;10.394;2023-02-24T01:23:45;8.43;;;4.07;;
18013;SDS011;9132;47.946;10.394;2023-02-24T01:26:12;5.37;;;3.93;;
18013;SDS011;9132;47.946;10.394;2023-02-24T01:28:39;6.60;;;4.27;;
18013;SDS011;9132;47.946;10.394;2023-02-24T01:31:06;8.63;;;4.20;;
18013;SDS011;9132;47.946;10.394;2023-02-24T01:33:34;5.37;;;4.10;;
18013;SDS011;9132;47.946;10.394;2023-02-24T01:36:09;7.63;;;4.03;;
18013;SDS011;9132;47.946;10.394;2023-02-24T01:38:36;4.93;;;3.50;;
18013;SDS011;9132;47.946;10.394;2023-02-24T01:41:03;7.07;;;4.40;;
18013;SDS011;9132;47.946;10.394;2023-02-24T01:43:30;7.13;;;4.53;;
18013;SDS011;9132;47.946;10.394;2023-02-24T01:45:57;7.57;;;4.17;;
18013;SDS011;9132;47.946;10.394;2023-02-24T01:48:23;5.63;;;3.87;;
18013;SDS011;9132;47.946;10.394;2023-02-24T01:50:51;5.80;;;3.97;;
18013;SDS011;9132;47.946;10.394;2023-02-24T01:53:18;7.53;;;4.60;;
18013;SDS011;9132;47.946;10.394;2023-02-24T01:55:45;7.87;;;4.13;;
18013;SDS011;9132;47.946;10.394;2023-02-24T01:58:15;5.83;;;4.07;;
18013;SDS011;9132;47.946;10.394;2023-02-24T02:00:43;6.43;;;3.70;;
18013;SDS011;9132;47.946;10.394;2023-02-24T02:03:18;8.60;;;4.13;;
18013;SDS011;9132;47.946;10.394;2023-02-24T02:05:48;8.20;;;4.47;;
18013;SDS011;9132;47.946;10.394;2023-02-24T02:08:17;5.47;;;3.97;;
18013;SDS011;9132;47.946;10.394;2023-02-24T02:10:44;7.10;;;4.40;;
18013;SDS011;9132;47.946;10.394;2023-02-24T02:13:11;7.00;;;3.77;;
18013;SDS011;9132;47.946;10.394;2023-02-24T02:15:41;8.87;;;4.00;;
18013;SDS011;9132;47.946;10.394;2023-02-24T02:18:12;6.67;;;4.23;;
18013;SDS011;9132;47.946;10.394;2023-02-24T02:21:09;5.70;;;3.90;;
18013;SDS011;9132;47.946;10.394;2023-02-24T02:26:30;9.27;;;3.97;;
18013;SDS011;9132;47.946;10.394;2023-02-24T02:29:22;8.40;;;4.13;;
18013;SDS011;9132;47.946;10.394;2023-02-24T02:31:56;5.90;;;3.93;;
18013;SDS011;9132;47.946;10.394;2023-02-24T02:34:35;5.67;;;4.17;;
18013;SDS011;9132;47.946;10.394;2023-02-24T02:37:07;5.63;;;3.63;;
18013;SDS011;9132;47.946;10.394;2023-02-24T02:39:38;7.27;;;4.10;;
18013;SDS011;9132;47.946;10.394;2023-02-24T02:42:09;7.83;;;4.40;;
18013;SDS011;9132;47.946;10.394;2023-02-24T02:44:44;6.80;;;4.03;;
18013;SDS011;9132;47.946;10.394;2023-02-24T02:47:13;5.07;;;3.70;;
18013;SDS011;9132;47.946;10.394;2023-02-24T02:49:44;5.63;;;3.50;;
18013;SDS011;9132;47.946;10.394;2023-02-24T02:52:13;7.17;;;3.73;;
18013;SDS011;9132;47.946;10.394;2023-02-24T02:54:42;5.97;;;3.87;;
18013;SDS011;9132;47.946;10.394;2023-02-24T02:57:14;6.27;;;3.50;;
18013;SDS011;9132;47.946;10.394;2023-02-24T02:59:43;6.77;;;4.17;;
18013;SDS011;9132;47.946;10.394;2023-02-24T03:02:13;5.30;;;4.00;;
18013;SDS011;9132;47.946;10.394;2023-02-24T03:04:44;9.93;;;3.97;;
18013;SDS011;9132;47.946;10.394;2023-02-24T03:07:12;8.50;;;3.73;;
18013;SDS011;9132;47.946;10.394;2023-02-24T03:09:42;7.47;;;4.20;;
18013;SDS011;9132;47.946;10.394;2023-02-24T03:12:11;9.07;;;4.60;;
18013;SDS011;9132;47.946;10.394;2023-02-24T03:14:39;5.80;;;3.40;;
18013;SDS011;9132;47.946;10.394;2023-02-24T03:17:08;7.90;;;4.10;;
18013;SDS011;9132;47.946;10.394;2023-02-24T03:19:37;6.57;;;3.87;;
18013;SDS011;9132;47.946;10.394;2023-02-24T03:22:07;7.00;;;3.50;;
18013;SDS011;9132;47.946;10.394;2023-02-24T03:24:36;6.90;;;3.80;;
18013;SDS011;9132;47.946;10.394;2023-02-24T03:27:04;9.50;;;4.30;;
18013;SDS011;9132;47.946;10.394;2023-02-24T03:29:33;4.83;;;3.63;;
18013;SDS011;9132;47.946;10.394;2023-02-24T03:32:02;8.43;;;4.00;;
18013;SDS011;9132;47.946;10.394;2023-02-24T03:34:32;7.57;;;4.30;;
18013;SDS011;9132;47.946;10.394;2023-02-24T03:37:02;7.57;;;4.10;;
18013;SDS011;9132;47.946;10.394;2023-02-24T03:39:30;10.20;;;4.20;;
18013;SDS011;9132;47.946;10.394;2023-02-24T03:41:57;8.90;;;4.60;;
18013;SDS011;9132;47.946;10.394;2023-02-24T03:44:26;6.00;;;3.77;;
18013;SDS011;9132;47.946;10.394;2023-02-24T03:46:53;8.87;;;4.20;;
18013;SDS011;9132;47.946;10.394;2023-02-24T03:49:20;8.93;;;3.90;;
18013;SDS011;9132;47.946;10.394;2023-02-24T03:51:49;7.40;;;3.90;;
18013;SDS011;9132;47.946;10.394;2023-02-24T03:54:38;7.50;;;3.67;;
18013;SDS011;9132;47.946;10.394;2023-02-24T03:57:13;7.10;;;3.70;;
18013;SDS011;9132;47.946;10.394;2023-02-24T03:59:44;5.77;;;4.37;;
18013;SDS011;9132;47.946;10.394;2023-02-24T04:02:13;6.40;;;4.10;;
18013;SDS011;9132;47.946;10.394;2023-02-24T04:04:41;6.37;;;3.50;;
18013;SDS011;9132;47.946;10.394;2023-02-24T04:07:11;10.43;;;3.93;;
18013;SDS011;9132;47.946;10.394;2023-02-24T04:09:39;12.10;;;4.37;;
18013;SDS011;9132;47.946;10.394;2023-02-24T04:12:08;5.90;;;3.40;;
18013;SDS011;9132;47.946;10.394;2023-02-24T04:14:45;7.57;;;3.70;;
18013;SDS011;9132;47.946;10.394;2023-02-24T04:17:13;6.87;;;4.23;;
18013;SDS011;9132;47.946;10.394;2023-02-24T04:19:43;6.33;;;3.60;;
18013;SDS011;9132;47.946;10.394;2023-02-24T04:22:12;5.83;;;3.87;;
18013;SDS011;9132;47.946;10.394;2023-02-24T04:24:41;8.03;;;3.67;;
18013;SDS011;9132;47.946;10.394;2023-02-24T04:27:08;5.00;;;3.53;;
18013;SDS011;9132;47.946;10.394;2023-02-24T04:29:37;3.73;;;3.27;;
18013;SDS011;9132;47.946;10.394;2023-02-24T04:32:07;6.60;;;3.93;;
18013;SDS011;9132;47.946;10.394;2023-02-24T04:34:34;7.40;;;3.50;;
18013;SDS011;9132;47.946;10.394;2023-02-24T04:37:01;7.33;;;4.20;;
18013;SDS011;9132;47.946;10.394;2023-02-24T04:39:28;8.47;;;3.80;;
18013;SDS011;9132;47.946;10.394;2023-02-24T04:41:54;3.70;;;3.00;;
18013;SDS011;9132;47.946;10.394;2023-02-24T04:44:22;9.03;;;3.43;;
18013;SDS011;9132;47.946;10.394;2023-02-24T04:46:49;5.43;;;3.30;;
18013;SDS011;9132;47.946;10.394;2023-02-24T04:49:17;6.57;;;3.20;;
18013;SDS011;9132;47.946;10.394;2023-02-24T04:51:44;6.67;;;3.70;;
18013;SDS011;9132;47.946;10.394;2023-02-24T04:54:11;5.57;;;3.47;;
18013;SDS011;9132;47.946;10.394;2023-02-24T04:56:41;9.97;;;3.83;;
18013;SDS011;9132;47.946;10.394;2023-02-24T04:59:08;5.10;;;3.40;;
18013;SDS011;9132;47.946;10.394;2023-02-24T05:01:35;6.17;;;3.70;;
18013;SDS011;9132;47.946;10.394;2023-02-24T05:04:04;8.10;;;4.20;;
18013;SDS011;9132;47.946;10.394;2023-02-24T05:06:31;6.43;;;3.90;;
18013;SDS011;9132;47.946;10.394;2023-02-24T05:08:58;10.07;;;3.63;;
18013;SDS011;9132;47.946;10.394;2023-02-24T05:11:25;7.63;;;3.87;;
18013;SDS011;9132;47.946;10.394;2023-02-24T05:13:58;6.33;;;3.43;;
18013;SDS011;9132;47.946;10.394;2023-02-24T05:16:28;6.17;;;3.97;;
18013;SDS011;9132;47.946;10.394;2023-02-24T05:18:54;6.73;;;3.87;;
18013;SDS011;9132;47.946;10.394;2023-02-24T05:21:36;6.70;;;3.53;;
18013;SDS011;9132;47.946;10.394;2023-02-24T05:24:03;8.40;;;3.43;;
18013;SDS011;9132;47.946;10.394;2023-02-24T05:26:30;7.73;;;3.73;;
18013;SDS011;9132;47.946;10.394;2023-02-24T05:28:58;6.10;;;3.30;;
18013;SDS011;9132;47.946;10.394;2023-02-24T05:31:26;8.37;;;3.80;;
18013;SDS011;9132;47.946;10.394;2023-02-24T05:33:54;7.83;;;3.67;;
18013;SDS011;9132;47.946;10.394;2023-02-24T05:36:21;5.93;;;3.23;;
18013;SDS011;9132;47.946;10.394;2023-02-24T05:38:50;6.20;;;3.70;;
18013;SDS011;9132;47.946;10.394;2023-02-24T05:41:19;7.60;;;3.77;;
18013;SDS011;9132;47.946;10.394;2023-02-24T05:43:47;7.97;;;4.33;;
18013;SDS011;9132;47.946;10.394;2023-02-24T05:46:17;5.60;;;4.00;;
18013;SDS011;9132;47.946;10.394;2023-02-24T05:48:44;7.83;;;3.80;;
18013;SDS011;9132;47.946;10.394;2023-02-24T05:51:11;8.17;;;4.00;;
18013;SDS011;9132;47.946;10.394;2023-02-24T05:53:37;6.97;;;4.17;;
18013;SDS011;9132;47.946;10.394;2023-02-24T05:56:07;8.57;;;4.20;;
18013;SDS011;9132;47.946;10.394;2023-02-24T05:58:33;7.63;;;4.47;;
18013;SDS011;9132;47.946;10.394;2023-02-24T06:01:07;6.93;;;3.93;;
18013;SDS011;9132;47.946;10.394;2023-02-24T06:03:40;10.37;;;3.73;;
18013;SDS011;9132;47.946;10.394;2023-02-24T06:06:10;8.50;;;3.87;;
18013;SDS011;9132;47.946;10.394;2023-02-24T06:08:37;7.90;;;3.77;;
18013;SDS011;9132;47.946;10.394;2023-02-24T06:11:14;6.65;;;4.35;;
18013;SDS011;9132;47.946;10.394;2023-02-24T06:13:42;6.33;;;4.00;;
18013;SDS011;9132;47.946;10.394;2023-02-24T06:16:11;6.75;;;4.03;;
18013;SDS011;9132;47.946;10.394;2023-02-24T06:18:39;5.63;;;3.33;;
18013;SDS011;9132;47.946;10.394;2023-02-24T06:21:05;5.70;;;3.60;;
18013;SDS011;9132;47.946;10.394;2023-02-24T06:23:32;8.90;;;4.10;;
18013;SDS011;9132;47.946;10.394;2023-02-24T06:26:00;7.50;;;4.30;;
18013;SDS011;9132;47.946;10.394;2023-02-24T06:28:29;7.23;;;4.00;;
18013;SDS011;9132;47.946;10.394;2023-02-24T06:30:55;7.33;;;3.93;;
18013;SDS011;9132;47.946;10.394;2023-02-24T06:33:22;7.27;;;4.23;;
18013;SDS011;9132;47.946;10.394;2023-02-24T06:35:50;7.37;;;3.80;;
18013;SDS011;9132;47.946;10.394;2023-02-24T06:38:17;6.87;;;3.40;;
18013;SDS011;9132;47.946;10.394;2023-02-24T06:40:45;6.67;;;4.20;;
18013;SDS011;9132;47.946;10.394;2023-02-24T06:43:11;6.90;;;3.70;;
18013;SDS011;9132;47.946;10.394;2023-02-24T06:45:39;6.70;;;4.10;;
18013;SDS011;9132;47.946;10.394;2023-02-24T06:48:05;11.97;;;4.43;;
18013;SDS011;9132;47.946;10.394;2023-02-24T06:50:33;6.77;;;3.93;;
18013;SDS011;9132;47.946;10.394;2023-02-24T06:52:59;7.77;;;4.37;;
18013;SDS011;9132;47.946;10.394;2023-02-24T06:55:26;8.17;;;4.70;;
18013;SDS011;9132;47.946;10.394;2023-02-24T06:57:54;14.03;;;4.10;;
18013;SDS011;9132;47.946;10.394;2023-02-24T07:00:26;9.37;;;3.77;;
18013;SDS011;9132;47.946;10.394;2023-02-24T07:03:02;8.20;;;4.77;;
18013;SDS011;9132;47.946;10.394;2023-02-24T07:05:39;7.37;;;3.80;;
18013;SDS011;9132;47.946;10.394;2023-02-24T07:08:06;8.40;;;4.80;;
18013;SDS011;9132;47.946;10.394;2023-02-24T07:10:32;7.53;;;4.20;;
18013;SDS011;9132;47.946;10.394;2023-02-24T07:12:59;6.30;;;3.50;;
18013;SDS011;9132;47.946;10.394;2023-02-24T07:15:26;7.83;;;4.50;;
18013;SDS011;9132;47.946;10.394;2023-02-24T07:17:56;7.83;;;4.20;;
18013;SDS011;9132;47.946;10.394;2023-02-24T07:20:23;13.77;;;4.50;;
18013;SDS011;9132;47.946;10.394;2023-02-24T07:22:50;6.43;;;3.57;;
18013;SDS011;9132;47.946;10.394;2023-02-24T07:25:16;8.17;;;4.23;;
18013;SDS011;9132;47.946;10.394;2023-02-24T07:27:57;7.73;;;4.07;;
18013;SDS011;9132;47.946;10.394;2023-02-24T07:30:25;6.77;;;3.83;;
18013;SDS011;9132;47.946;10.394;2023-02-24T07:32:52;7.73;;;3.77;;
18013;SDS011;9132;47.946;10.394;2023-02-24T07:35:20;10.50;;;3.60;;
18013;SDS011;9132;47.946;10.394;2023-02-24T07:37:49;5.50;;;3.93;;
18013;SDS011;9132;47.946;10.394;2023-02-24T07:40:16;10.03;;;4.47;;
18013;SDS011;9132;47.946;10.394;2023-02-24T07:42:42;7.60;;;4.50;;
18013;SDS011;9132;47.946;10.394;2023-02-24T07:45:11;13.70;;;9.30;;
18013;SDS011;9132;47.946;10.394;2023-02-24T07:47:38;13.30;;;8.33;;
18013;SDS011;9132;47.946;10.394;2023-02-24T07:50:05;8.20;;;5.57;;
18013;SDS011;9132;47.946;10.394;2023-02-24T07:52:38;11.03;;;5.97;;
18013;SDS011;9132;47.946;10.394;2023-02-24T07:55:06;14.10;;;7.60;;
18013;SDS011;9132;47.946;10.394;2023-02-24T07:57:34;14.13;;;6.43;;
18013;SDS011;9132;47.946;10.394;2023-02-24T08:00:02;11.73;;;6.43;;
18013;SDS011;9132;47.946;10.394;2023-02-24T08:02:41;11.50;;;7.20;;
18013;SDS011;9132;47.946;10.394;2023-02-24T08:05:07;12.07;;;6.50;;
18013;SDS011;9132;47.946;10.394;2023-02-24T08:07:34;9.37;;;5.47;;
18013;SDS011;9132;47.946;10.394;2023-02-24T08:10:00;6.43;;;5.17;;
18013;SDS011;9132;47.946;10.394;2023-02-24T08:12:49;9.37;;;5.53;;
18013;SDS011;9132;47.946;10.394;2023-02-24T08:15:18;12.63;;;6.37;;
18013;SDS011;9132;47.946;10.394;2023-02-24T08:17:48;12.10;;;7.30;;
18013;SDS011;9132;47.946;10.394;2023-02-24T08:20:17;11.13;;;7.17;;
18013;SDS011;9132;47.946;10.394;2023-02-24T08:22:48;9.63;;;6.87;;
18013;SDS011;9132;47.946;10.394;2023-02-24T08:25:16;12.37;;;6.70;;
18013;SDS011;9132;47.946;10.394;2023-02-24T08:27:43;12.93;;;6.23;;
18013;SDS011;9132;47.946;10.394;2023-02-24T08:30:12;9.90;;;6.50;;
18013;SDS011;9132;47.946;10.394;2023-02-24T08:32:47;10.43;;;6.70;;
18013;SDS011;9132;47.946;10.394;2023-02-24T08:35:22;11.90;;;7.23;;
18013;SDS011;9132;47.946;10.394;2023-02-24T08:37:50;15.83;;;9.30;;
18013;SDS011;9132;47.946;10.394;2023-02-24T08:40:18;18.40;;;9.60;;
18013;SDS011;9132;47.946;10.394;2023-02-24T08:43:02;12.33;;;8.57;;
18013;SDS011;9132;47.946;10.394;2023-02-24T08:45:41;19.50;;;12.90;;
18013;SDS011;9132;47.946;10.394;2023-02-24T08:48:09;44.13;;;28.07;;
18013;SDS011;9132;47.946;10.394;2023-02-24T08:50:42;35.20;;;23.03;;
18013;SDS011;9132;47.946;10.394;2023-02-24T08:53:09;23.10;;;15.47;;
18013;SDS011;9132;47.946;10.394;2023-02-24T08:55:39;31.90;;;19.83;;
18013;SDS011;9132;47.946;10.394;2023-02-24T08:58:06;35.30;;;20.13;;
18013;SDS011;9132;47.946;10.394;2023-02-24T09:00:35;22.03;;;14.37;;
18013;SDS011;9132;47.946;10.394;2023-02-24T09:03:14;21.07;;;13.50;;
18013;SDS011;9132;47.946;10.394;2023-02-24T09:05:54;19.23;;;11.47;;
18013;SDS011;9132;47.946;10.394;2023-02-24T09:08:21;17.73;;;10.10;;
18013;SDS011;9132;47.946;10.394;2023-02-24T09:10:48;15.63;;;7.97;;
18013;SDS011;9132;47.946;10.394;2023-02-24T09:13:14;14.13;;;8.10;;
18013;SDS011;9132;47.946;10.394;2023-02-24T09:15:43;15.93;;;11.70;;
18013;SDS011;9132;47.946;10.394;2023-02-24T09:18:09;12.07;;;8.43;;
18013;SDS011;9132;47.946;10.394;2023-02-24T09:20:39;18.50;;;9.47;;
18013;SDS011;9132;47.946;10.394;2023-02-24T09:23:22;13.60;;;8.50;;
18013;SDS011;9132;47.946;10.394;2023-02-24T09:25:54;12.03;;;7.43;;
18013;SDS011;9132;47.946;10.394;2023-02-24T09:28:21;15.07;;;7.40;;
18013;SDS011;9132;47.946;10.394;2023-02-24T09:30:49;10.80;;;7.07;;
18013;SDS011;9132;47.946;10.394;2023-02-24T09:33:18;11.90;;;7.90;;
18013;SDS011;9132;47.946;10.394;2023-02-24T09:35:51;14.30;;;7.90;;
18013;SDS011;9132;47.946;10.394;2023-02-24T09:38:19;16.47;;;7.63;;
18013;SDS011;9132;47.946;10.394;2023-02-24T09:41:07;12.47;;;7.70;;
18013;SDS011;9132;47.946;10.394;2023-02-24T09:43:53;13.10;;;7.63;;
18013;SDS011;9132;47.946;10.394;2023-02-24T09:46:23;13.57;;;7.50;;
18013;SDS011;9132;47.946;10.394;2023-02-24T09:48:52;15.47;;;7.40;;
18013;SDS011;9132;47.946;10.394;2023-02-24T09:51:21;11.67;;;7.53;;
18013;SDS011;9132;47.946;10.394;2023-02-24T09:53:53;8.83;;;6.60;;
18013;SDS011;9132;47.946;10.394;2023-02-24T09:56:27;13.77;;;8.13;;
18013;SDS011;9132;47.946;10.394;2023-02-24T09:58:56;10.10;;;7.23;;
18013;SDS011;9132;47.946;10.394;2023-02-24T10:01:44;12.77;;;6.77;;
18013;SDS011;9132;47.946;10.394;2023-02-24T10:04:19;16.10;;;6.23;;
18013;SDS011;9132;47.946;10.394;2023-02-24T10:06:49;12.20;;;6.17;;
18013;SDS011;9132;47.946;10.394;2023-02-24T10:09:17;12.03;;;6.50;;
18013;SDS011;9132;47.946;10.394;2023-02-24T10:11:49;11.27;;;7.30;;
18013;SDS011;9132;47.946;10.394;2023-02-24T10:14:20;14.67;;;8.00;;
18013;SDS011;9132;47.946;10.394;2023-02-24T10:16:48;12.40;;;7.87;;
18013;SDS011;9132;47.946;10.394;2023-02-24T10:19:36;12.97;;;6.83;;
18013;SDS011;9132;47.946;10.394;2023-02-24T10:22:09;15.00;;;7.93;;
18013;SDS011;9132;47.946;10.394;2023-02-24T10:24:51;12.90;;;7.73;;
18013;SDS011;9132;47.946;10.394;2023-02-24T10:27:26;12.47;;;7.60;;
18013;SDS011;9132;47.946;10.394;2023-02-24T10:29:57;17.07;;;8.03;;
18013;SDS011;9132;47.946;10.394;2023-02-24T10:32:31;12.03;;;8.10;;
18013;SDS011;9132;47.946;10.394;2023-02-24T10:34:59;16.97;;;8.13;;
18013;SDS011;9132;47.946;10.394;2023-02-24T10:37:27;12.10;;;6.93;;
18013;SDS011;9132;47.946;10.394;2023-02-24T10:39:55;16.33;;;7.67;;
18013;SDS011;9132;47.946;10.394;2023-02-24T10:42:22;12.00;;;7.60;;
18013;SDS011;9132;47.946;10.394;2023-02-24T10:44:49;13.90;;;7.63;;
18013;SDS011;9132;47.946;10.394;2023-02-24T10:47:19;12.23;;;7.50;;
18013;SDS011;9132;47.946;10.394;2023-02-24T10:49:55;13.50;;;7.77;;
18013;SDS011;9132;47.946;10.394;2023-02-24T10:52:22;12.77;;;7.43;;
18013;SDS011;9132;47.946;10.394;2023-02-24T10:55:08;10.10;;;7.57;;
18013;SDS011;9132;47.946;10.394;2023-02-24T10:57:52;12.03;;;7.67;;
18013;SDS011;9132;47.946;10.394;2023-02-24T11:00:35;14.60;;;7.60;;
18013;SDS011;9132;47.946;10.394;2023-02-24T11:03:16;14.50;;;7.97;;
18013;SDS011;9132;47.946;10.394;2023-02-24T11:05:59;10.27;;;7.80;;
18013;SDS011;9132;47.946;10.394;2023-02-24T11:08:44;13.63;;;8.27;;
18013;SDS011;9132;47.946;10.394;2023-02-24T11:11:29;13.80;;;7.57;;
18013;SDS011;9132;47.946;10.394;2023-02-24T11:14:17;12.63;;;7.73;;
18013;SDS011;9132;47.946;10.394;2023-02-24T11:17:00;13.07;;;7.97;;
18013;SDS011;9132;47.946;10.394;2023-02-24T11:19:43;10.83;;;7.23;;
18013;SDS011;9132;47.946;10.394;2023-02-24T11:22:11;13.13;;;8.60;;
18013;SDS011;9132;47.946;10.394;2023-02-24T11:24:38;14.47;;;8.23;;
18013;SDS011;9132;47.946;10.394;2023-02-24T11:27:06;11.77;;;7.47;;
18013;SDS011;9132;47.946;10.394;2023-02-24T11:29:37;16.50;;;8.73;;
18013;SDS011;9132;47.946;10.394;2023-02-24T11:32:13;15.73;;;8.40;;
18013;SDS011;9132;47.946;10.394;2023-02-24T11:34:42;12.40;;;7.10;;
18013;SDS011;9132;47.946;10.394;2023-02-24T11:37:14;12.87;;;8.27;;
18013;SDS011;9132;47.946;10.394;2023-02-24T11:39:49;21.13;;;8.30;;
18013;SDS011;9132;47.946;10.394;2023-02-24T11:42:20;14.90;;;9.00;;
18013;SDS011;9132;47.946;10.394;2023-02-24T11:44:51;12.67;;;8.30;;
18013;SDS011;9132;47.946;10.394;2023-02-24T11:47:21;15.53;;;9.37;;
18013;SDS011;9132;47.946;10.394;2023-02-24T11:49:51;17.10;;;9.90;;
18013;SDS011;9132;47.946;10.394;2023-02-24T11:52:19;12.57;;;7.77;;
18013;SDS011;9132;47.946;10.394;2023-02-24T11:54:52;17.30;;;8.53;;
18013;SDS011;9132;47.946;10.394;2023-02-24T11:57:20;13.00;;;8.50;;
18013;SDS011;9132;47.946;10.394;2023-02-24T11:59:50;13.00;;;8.07;;
18013;SDS011;9132;47.946;10.394;2023-02-24T12:02:21;15.63;;;8.50;;
18013;SDS011;9132;47.946;10.394;2023-02-24T12:04:53;13.60;;;8.50;;
18013;SDS011;9132;47.946;10.394;2023-02-24T12:07:21;12.73;;;8.70;;
18013;SDS011;9132;47.946;10.394;2023-02-24T12:09:53;14.37;;;8.53;;
18013;SDS011;9132;47.946;10.394;2023-02-24T12:12:22;14.50;;;8.37;;
18013;SDS011;9132;47.946;10.394;2023-02-24T12:14:50;13.20;;;8.73;;
18013;SDS011;9132;47.946;10.394;2023-02-24T12:17:19;14.77;;;8.97;;
18013;SDS011;9132;47.946;10.394;2023-02-24T12:19:58;15.47;;;8.80;;
18013;SDS011;9132;47.946;10.394;2023-02-24T12:22:28;16.77;;;9.60;;
18013;SDS011;9132;47.946;10.394;2023-02-24T12:24:56;14.23;;;8.80;;
18013;SDS011;9132;47.946;10.394;2023-02-24T12:27:32;14.13;;;9.17;;
18013;SDS011;9132;47.946;10.394;2023-02-24T12:30:14;12.53;;;8.20;;
18013;SDS011;9132;47.946;10.394;2023-02-24T12:32:59;14.13;;;8.73;;
18013;SDS011;9132;47.946;10.394;2023-02-24T12:35:30;15.20;;;8.87;;
18013;SDS011;9132;47.946;10.394;2023-02-24T12:38:01;15.87;;;9.10;;
18013;SDS011;9132;47.946;10.394;2023-02-24T12:40:34;16.00;;;9.00;;
18013;SDS011;9132;47.946;10.394;2023-02-24T12:43:07;12.88;;;8.82;;
18013;SDS011;9132;47.946;10.394;2023-02-24T12:45:39;13.00;;;9.20;;
18013;SDS011;9132;47.946;10.394;2023-02-24T12:48:12;12.97;;;8.33;;
18013;SDS011;9132;47.946;10.394;2023-02-24T12:50:42;16.10;;;8.93;;
18013;SDS011;9132;47.946;10.394;2023-02-24T12:53:13;12.53;;;8.30;;
18013;SDS011;9132;47.946;10.394;2023-02-24T12:55:44;20.57;;;8.87;;
18013;SDS011;9132;47.946;10.394;2023-02-24T12:58:14;16.03;;;8.30;;
18013;SDS011;9132;47.946;10.394;2023-02-24T13:00:45;14.00;;;8.47;;
18013;SDS011;9132;47.946;10.394;2023-02-24T13:06:01;11.93;;;8.13;;
18013;SDS011;9132;47.946;10.394;2023-02-24T13:08:33;13.37;;;7.80;;
18013;SDS011;9132;47.946;10.394;2023-02-24T13:11:04;12.40;;;7.87;;
18013;SDS011;9132;47.946;10.394;2023-02-24T13:13:38;17.97;;;8.23;;
18013;SDS011;9132;47.946;10.394;2023-02-24T13:16:05;15.00;;;7.93;;
18013;SDS011;9132;47.946;10.394;2023-02-24T13:18:32;14.73;;;8.87;;
18013;SDS011;9132;47.946;10.394;2023-02-24T13:21:03;17.17;;;8.80;;
18013;SDS011;9132;47.946;10.394;2023-02-24T13:23:30;13.63;;;8.30;;
18013;SDS011;9132;47.946;10.394;2023-02-24T13:25:56;14.03;;;8.53;;
18013;SDS011;9132;47.946;10.394;2023-02-24T13:28:23;14.33;;;8.67;;
18013;SDS011;9132;47.946;10.394;2023-02-24T13:30:58;13.17;;;8.73;;
18013;SDS011;9132;47.946;10.394;2023-02-24T13:33:27;17.53;;;9.43;;
18013;SDS011;9132;47.946;10.394;2023-02-24T13:36:04;18.73;;;8.73;;
18013;SDS011;9132;47.946;10.394;2023-02-24T13:38:33;13.60;;;8.70;;
18013;SDS011;9132;47.946;10.394;2023-02-24T13:43:52;15.50;;;9.27;;
18013;SDS011;9132;47.946;10.394;2023-02-24T13:46:21;13.77;;;9.23;;
18013;SDS011;9132;47.946;10.394;2023-02-24T13:48:53;15.40;;;9.73;;
18013;SDS011;9132;47.946;10.394;2023-02-24T13:54:10;19.53;;;9.00;;
18013;SDS011;9132;47.946;10.394;2023-02-24T13:56:42;17.67;;;8.50;;
18013;SDS011;9132;47.946;10.394;2023-02-24T14:02:02;14.07;;;9.20;;
18013;SDS011;9132;47.946;10.394;2023-02-24T14:04:29;14.17;;;8.40;;
18013;SDS011;9132;47.946;10.394;2023-02-24T14:06:57;17.83;;;9.07;;
18013;SDS011;9132;47.946;10.394;2023-02-24T14:09:25;18.23;;;9.60;;
18013;SDS011;9132;47.946;10.394;2023-02-24T14:11:53;14.57;;;9.10;;
18013;SDS011;9132;47.946;10.394;2023-02-24T14:14:22;14.77;;;8.97;;
18013;SDS011;9132;47.946;10.394;2023-02-24T14:16:48;13.63;;;8.70;;
18013;SDS011;9132;47.946;10.394;2023-02-24T14:19:17;13.47;;;8.90;;
18013;SDS011;9132;47.946;10.394;2023-02-24T14:21:47;15.10;;;8.87;;
18013;SDS011;9132;47.946;10.394;2023-02-24T14:24:14;18.87;;;9.23;;
18013;SDS011;9132;47.946;10.394;2023-02-24T14:26:43;17.23;;;9.63;;
18013;SDS011;9132;47.946;10.394;2023-02-24T14:29:12;17.93;;;9.00;;
18013;SDS011;9132;47.946;10.394;2023-02-24T14:31:40;16.27;;;9.50;;
18013;SDS011;9132;47.946;10.394;2023-02-24T14:34:06;17.17;;;9.33;;
18013;SDS011;9132;47.946;10.394;2023-02-24T14:36:42;17.90;;;9.57;;
18013;SDS011;9132;47.946;10.394;2023-02-24T14:39:13;16.97;;;8.33;;
18013;SDS011;9132;47.946;10.394;2023-02-24T14:41:40;16.07;;;8.40;;
18013;SDS011;9132;47.946;10.394;2023-02-24T14:44:10;17.37;;;9.37;;
18013;SDS011;9132;47.946;10.394;2023-02-24T14:46:46;16.23;;;9.30;;
18013;SDS011;9132;47.946;10.394;2023-02-24T14:49:14;17.20;;;8.77;;
18013;SDS011;9132;47.946;10.394;2023-02-24T14:51:44;16.20;;;10.00;;
18013;SDS011;9132;47.946;10.394;2023-02-24T14:54:12;15.10;;;9.37;;
18013;SDS011;9132;47.946;10.394;2023-02-24T14:56:41;17.27;;;10.03;;
18013;SDS011;9132;47.946;10.394;2023-02-24T14:59:08;19.90;;;9.37;;
18013;SDS011;9132;47.946;10.394;2023-02-24T15:01:40;20.97;;;10.63;;
18013;SDS011;9132;47.946;10.394;2023-02-24T15:04:11;18.07;;;10.80;;
18013;SDS011;9132;47.946;10.394;2023-02-24T15:06:39;18.60;;;11.60;;
18013;SDS011;9132;47.946;10.394;2023-02-24T15:09:11;21.33;;;13.23;;
18013;SDS011;9132;47.946;10.394;2023-02-24T15:11:38;19.53;;;11.73;;
18013;SDS011;9132;47.946;10.394;2023-02-24T15:14:06;20.83;;;11.90;;